Current Weather Conditions: station 63115

sailwx.info

Last reported at 2015-Nov-23 09:06 UTC.
Time now 2016-Feb-10 17:43 UTC

Location: N 61°36' E 001°18'.
View on Google Maps.

See reports from other nearby stations

  
Tides and Currents Weather Stations Pressure Air Temp Water Temp Dewpoint Dewpoint Depression Visibility Wind Speed Wind Dir Waves Ship Positions
date/time (UTC)wind fromknots sea level pressurealtimeterstation pressurevisibilityair tempwater tempwave heightnotes
2016-Feb-10 16:00 030 31 10.8 7.6 5.6
2016-Feb-10 15:00 030 33 5.4 8.0 5.4
2016-Feb-10 14:00 030 32 5.4 8.8 6.0
2016-Feb-10 08:00 030 23 5.410.9 3.9
2016-Feb-10 06:00 030 16 5.4 6.9 3.1
2016-Feb-10 04:00 340 11 10.8 6.2 3.2
2016-Feb-10 03:00 340 13 27.0 6.3 3.0
2016-Feb-09 22:00 010 11 10.8 6.0 3.1
2016-Feb-09 21:00 350 14 27.0 6.5 3.1
2016-Feb-09 18:00 360 17 27.0 5.8 3.4
2016-Feb-09 17:00 350 19 10.8 6.0 3.5
2016-Feb-09 16:00 360 19 27.0 6.0 3.7
2016-Feb-09 15:00 030 14 5.4 6.7 3.4
2016-Feb-09 14:00 020 15 10.8 5.9 3.5
2016-Feb-09 13:00 020 15 10.8 6.1 3.7
2016-Feb-09 12:00 020 14 10.8 6.0 3.8
2016-Feb-09 11:00 030 16 5.4 6.9 3.7
2016-Feb-09 10:00 020 14 10.8 5.8 3.8
2016-Feb-09 09:00 030 17 2.2 7.9 3.7
2016-Feb-09 08:00 030 15 1.110.2 4.0
2016-Feb-09 07:00 030 9 5.4 5.7 3.9
2016-Feb-09 06:00 010 8 10.8 5.6 3.9
2016-Feb-09 05:00 010 8 1.1 5.8 4.0
2016-Feb-09 03:00 030 6 5.4 8.7 3.9
2016-Feb-09 02:00 070 5 10.8 8.9 3.8
2016-Feb-09 01:00 120 4 27.0 8.9 3.8
2016-Feb-09 00:00 140 6 27.0 8.2 3.6
2016-Feb-08 23:00 160 6 27.0 8.8 3.5
2016-Feb-08 21:00 210 8 10.8 7.9 3.4
2016-Feb-08 17:00 010 10 2.2 5.2 3.4